sensor_id;sensor_type;location;lat;lon;timestamp;P1;durP1;ratioP1;P2;durP2;ratioP2
55575;SDS011;41437;45.478;9.116;2022-12-20T00:00:19;71.28;;;39.25;;
55575;SDS011;41437;45.478;9.116;2022-12-20T00:03:24;71.25;;;39.70;;
55575;SDS011;41437;45.478;9.116;2022-12-20T00:06:26;74.30;;;40.40;;
55575;SDS011;41437;45.478;9.116;2022-12-20T00:09:30;69.50;;;38.72;;
55575;SDS011;41437;45.478;9.116;2022-12-20T00:12:31;71.57;;;39.65;;
55575;SDS011;41437;45.478;9.116;2022-12-20T00:15:33;70.97;;;40.65;;
55575;SDS011;41437;45.478;9.116;2022-12-20T00:18:37;66.03;;;38.67;;
55575;SDS011;41437;45.478;9.116;2022-12-20T00:21:40;72.60;;;38.92;;
55575;SDS011;41437;45.478;9.116;2022-12-20T00:24:43;71.82;;;39.97;;
55575;SDS011;41437;45.478;9.116;2022-12-20T00:27:44;68.35;;;38.40;;
55575;SDS011;41437;45.478;9.116;2022-12-20T00:30:51;66.68;;;38.42;;
55575;SDS011;41437;45.478;9.116;2022-12-20T00:33:54;70.60;;;40.97;;
55575;SDS011;41437;45.478;9.116;2022-12-20T00:36:56;66.47;;;38.45;;
55575;SDS011;41437;45.478;9.116;2022-12-20T00:39:59;73.15;;;41.13;;
55575;SDS011;41437;45.478;9.116;2022-12-20T00:43:01;67.55;;;37.78;;
55575;SDS011;41437;45.478;9.116;2022-12-20T00:46:03;65.82;;;39.13;;
55575;SDS011;41437;45.478;9.116;2022-12-20T00:49:05;66.88;;;38.78;;
55575;SDS011;41437;45.478;9.116;2022-12-20T00:52:07;66.13;;;37.80;;
55575;SDS011;41437;45.478;9.116;2022-12-20T00:55:10;64.45;;;38.53;;
55575;SDS011;41437;45.478;9.116;2022-12-20T00:58:12;62.22;;;36.78;;
55575;SDS011;41437;45.478;9.116;2022-12-20T01:01:15;62.20;;;37.95;;
55575;SDS011;41437;45.478;9.116;2022-12-20T01:04:19;61.33;;;37.10;;
55575;SDS011;41437;45.478;9.116;2022-12-20T01:07:21;64.05;;;36.60;;
55575;SDS011;41437;45.478;9.116;2022-12-20T01:10:25;66.97;;;38.90;;
55575;SDS011;41437;45.478;9.116;2022-12-20T01:13:27;64.57;;;37.80;;
55575;SDS011;41437;45.478;9.116;2022-12-20T01:16:30;65.72;;;37.90;;
55575;SDS011;41437;45.478;9.116;2022-12-20T01:19:34;62.28;;;37.35;;
55575;SDS011;41437;45.478;9.116;2022-12-20T01:22:37;60.67;;;37.47;;
55575;SDS011;41437;45.478;9.116;2022-12-20T01:25:40;63.70;;;36.90;;
55575;SDS011;41437;45.478;9.116;2022-12-20T01:28:44;66.82;;;38.17;;
55575;SDS011;41437;45.478;9.116;2022-12-20T01:31:47;61.55;;;38.10;;
55575;SDS011;41437;45.478;9.116;2022-12-20T01:34:49;61.38;;;38.13;;
55575;SDS011;41437;45.478;9.116;2022-12-20T01:37:50;61.83;;;36.90;;
55575;SDS011;41437;45.478;9.116;2022-12-20T01:40:54;63.60;;;37.35;;
55575;SDS011;41437;45.478;9.116;2022-12-20T01:46:58;64.05;;;37.20;;
55575;SDS011;41437;45.478;9.116;2022-12-20T01:50:00;65.15;;;38.05;;
55575;SDS011;41437;45.478;9.116;2022-12-20T01:53:03;61.40;;;37.38;;
55575;SDS011;41437;45.478;9.116;2022-12-20T01:56:07;62.03;;;35.97;;
55575;SDS011;41437;45.478;9.116;2022-12-20T01:59:10;63.25;;;38.20;;
55575;SDS011;41437;45.478;9.116;2022-12-20T02:02:13;60.72;;;36.63;;
55575;SDS011;41437;45.478;9.116;2022-12-20T02:05:17;63.17;;;38.08;;
55575;SDS011;41437;45.478;9.116;2022-12-20T02:08:20;61.45;;;37.15;;
55575;SDS011;41437;45.478;9.116;2022-12-20T02:11:37;65.68;;;37.72;;
55575;SDS011;41437;45.478;9.116;2022-12-20T02:14:53;63.15;;;36.85;;
55575;SDS011;41437;45.478;9.116;2022-12-20T02:18:07;61.47;;;36.97;;
55575;SDS011;41437;45.478;9.116;2022-12-20T02:21:23;68.30;;;37.83;;
55575;SDS011;41437;45.478;9.116;2022-12-20T02:24:37;61.55;;;36.80;;
55575;SDS011;41437;45.478;9.116;2022-12-20T02:27:58;65.32;;;37.58;;
55575;SDS011;41437;45.478;9.116;2022-12-20T02:31:07;63.78;;;38.97;;
55575;SDS011;41437;45.478;9.116;2022-12-20T02:34:11;64.97;;;38.72;;
55575;SDS011;41437;45.478;9.116;2022-12-20T02:37:15;67.75;;;39.15;;
55575;SDS011;41437;45.478;9.116;2022-12-20T02:40:17;68.63;;;40.33;;
55575;SDS011;41437;45.478;9.116;2022-12-20T02:43:22;67.35;;;39.55;;
55575;SDS011;41437;45.478;9.116;2022-12-20T02:46:43;72.10;;;39.75;;
55575;SDS011;41437;45.478;9.116;2022-12-20T02:49:47;65.72;;;39.00;;
55575;SDS011;41437;45.478;9.116;2022-12-20T02:52:51;66.97;;;38.58;;
55575;SDS011;41437;45.478;9.116;2022-12-20T02:55:55;65.53;;;38.33;;
55575;SDS011;41437;45.478;9.116;2022-12-20T02:59:01;71.15;;;39.22;;
55575;SDS011;41437;45.478;9.116;2022-12-20T03:02:09;68.55;;;40.13;;
55575;SDS011;41437;45.478;9.116;2022-12-20T03:08:14;66.45;;;39.22;;
55575;SDS011;41437;45.478;9.116;2022-12-20T03:11:16;68.07;;;41.28;;
55575;SDS011;41437;45.478;9.116;2022-12-20T03:14:19;71.20;;;40.23;;
55575;SDS011;41437;45.478;9.116;2022-12-20T03:17:22;65.85;;;39.10;;
55575;SDS011;41437;45.478;9.116;2022-12-20T03:20:24;64.88;;;40.63;;
55575;SDS011;41437;45.478;9.116;2022-12-20T03:23:25;63.25;;;38.03;;
55575;SDS011;41437;45.478;9.116;2022-12-20T03:26:28;64.45;;;39.42;;
55575;SDS011;41437;45.478;9.116;2022-12-20T03:29:30;64.88;;;40.20;;
55575;SDS011;41437;45.478;9.116;2022-12-20T03:32:33;64.47;;;39.45;;
55575;SDS011;41437;45.478;9.116;2022-12-20T03:35:35;67.93;;;40.90;;
55575;SDS011;41437;45.478;9.116;2022-12-20T03:38:37;68.50;;;39.92;;
55575;SDS011;41437;45.478;9.116;2022-12-20T03:41:38;65.25;;;39.60;;
55575;SDS011;41437;45.478;9.116;2022-12-20T03:44:40;70.55;;;42.03;;
55575;SDS011;41437;45.478;9.116;2022-12-20T03:47:43;65.07;;;39.47;;
55575;SDS011;41437;45.478;9.116;2022-12-20T03:50:45;67.70;;;40.58;;
55575;SDS011;41437;45.478;9.116;2022-12-20T03:53:46;68.78;;;40.53;;
55575;SDS011;41437;45.478;9.116;2022-12-20T03:56:48;69.88;;;38.85;;
55575;SDS011;41437;45.478;9.116;2022-12-20T03:59:50;62.47;;;39.45;;
55575;SDS011;41437;45.478;9.116;2022-12-20T04:02:54;63.35;;;38.08;;
55575;SDS011;41437;45.478;9.116;2022-12-20T04:05:56;63.97;;;37.67;;
55575;SDS011;41437;45.478;9.116;2022-12-20T04:08:57;60.58;;;36.38;;
55575;SDS011;41437;45.478;9.116;2022-12-20T04:11:59;60.72;;;37.47;;
55575;SDS011;41437;45.478;9.116;2022-12-20T04:15:01;63.30;;;37.03;;
55575;SDS011;41437;45.478;9.116;2022-12-20T04:18:04;65.22;;;36.53;;
55575;SDS011;41437;45.478;9.116;2022-12-20T04:21:06;66.25;;;37.25;;
55575;SDS011;41437;45.478;9.116;2022-12-20T04:24:09;63.85;;;36.97;;
55575;SDS011;41437;45.478;9.116;2022-12-20T04:27:11;59.47;;;36.60;;
55575;SDS011;41437;45.478;9.116;2022-12-20T04:30:16;65.70;;;37.67;;
55575;SDS011;41437;45.478;9.116;2022-12-20T04:33:19;63.85;;;36.10;;
55575;SDS011;41437;45.478;9.116;2022-12-20T04:36:21;61.58;;;36.00;;
55575;SDS011;41437;45.478;9.116;2022-12-20T04:39:23;57.85;;;34.38;;
55575;SDS011;41437;45.478;9.116;2022-12-20T04:42:25;61.63;;;38.08;;
55575;SDS011;41437;45.478;9.116;2022-12-20T04:45:27;64.50;;;37.60;;
55575;SDS011;41437;45.478;9.116;2022-12-20T04:48:30;64.88;;;37.30;;
55575;SDS011;41437;45.478;9.116;2022-12-20T04:51:32;62.95;;;36.80;;
55575;SDS011;41437;45.478;9.116;2022-12-20T04:54:35;63.05;;;36.88;;
55575;SDS011;41437;45.478;9.116;2022-12-20T04:57:36;60.10;;;37.72;;
55575;SDS011;41437;45.478;9.116;2022-12-20T05:00:37;60.30;;;36.17;;
55575;SDS011;41437;45.478;9.116;2022-12-20T05:03:40;62.35;;;38.33;;
55575;SDS011;41437;45.478;9.116;2022-12-20T05:06:42;63.25;;;38.53;;
55575;SDS011;41437;45.478;9.116;2022-12-20T05:09:44;63.97;;;38.08;;
55575;SDS011;41437;45.478;9.116;2022-12-20T05:12:46;61.92;;;36.88;;
55575;SDS011;41437;45.478;9.116;2022-12-20T05:15:49;63.92;;;36.78;;
55575;SDS011;41437;45.478;9.116;2022-12-20T05:18:53;61.78;;;37.45;;
55575;SDS011;41437;45.478;9.116;2022-12-20T05:21:55;60.22;;;36.67;;
55575;SDS011;41437;45.478;9.116;2022-12-20T05:25:14;60.08;;;36.55;;
55575;SDS011;41437;45.478;9.116;2022-12-20T05:28:33;62.53;;;37.75;;
55575;SDS011;41437;45.478;9.116;2022-12-20T05:31:35;59.20;;;36.67;;
55575;SDS011;41437;45.478;9.116;2022-12-20T05:34:38;65.88;;;37.35;;
55575;SDS011;41437;45.478;9.116;2022-12-20T05:37:40;63.20;;;36.10;;
55575;SDS011;41437;45.478;9.116;2022-12-20T05:40:41;64.00;;;36.78;;
55575;SDS011;41437;45.478;9.116;2022-12-20T05:43:43;65.95;;;37.75;;
55575;SDS011;41437;45.478;9.116;2022-12-20T05:46:45;61.38;;;37.42;;
55575;SDS011;41437;45.478;9.116;2022-12-20T05:49:48;57.42;;;34.78;;
55575;SDS011;41437;45.478;9.116;2022-12-20T05:52:49;58.03;;;34.08;;
55575;SDS011;41437;45.478;9.116;2022-12-20T05:55:51;57.35;;;35.25;;
55575;SDS011;41437;45.478;9.116;2022-12-20T05:58:54;56.10;;;33.97;;
55575;SDS011;41437;45.478;9.116;2022-12-20T06:01:56;51.97;;;31.70;;
55575;SDS011;41437;45.478;9.116;2022-12-20T06:04:59;51.90;;;31.50;;
55575;SDS011;41437;45.478;9.116;2022-12-20T06:08:02;53.53;;;32.40;;
55575;SDS011;41437;45.478;9.116;2022-12-20T06:11:04;51.13;;;30.63;;
55575;SDS011;41437;45.478;9.116;2022-12-20T06:14:06;49.83;;;29.73;;
55575;SDS011;41437;45.478;9.116;2022-12-20T06:17:07;48.50;;;29.67;;
55575;SDS011;41437;45.478;9.116;2022-12-20T06:20:12;50.87;;;29.13;;
55575;SDS011;41437;45.478;9.116;2022-12-20T06:23:14;47.10;;;29.42;;
55575;SDS011;41437;45.478;9.116;2022-12-20T06:26:15;48.45;;;28.50;;
55575;SDS011;41437;45.478;9.116;2022-12-20T06:29:18;47.42;;;28.27;;
55575;SDS011;41437;45.478;9.116;2022-12-20T06:32:20;47.58;;;29.58;;
55575;SDS011;41437;45.478;9.116;2022-12-20T06:35:23;47.72;;;28.83;;
55575;SDS011;41437;45.478;9.116;2022-12-20T06:38:24;48.72;;;29.30;;
55575;SDS011;41437;45.478;9.116;2022-12-20T06:41:26;47.17;;;29.05;;
55575;SDS011;41437;45.478;9.116;2022-12-20T06:44:28;49.50;;;30.30;;
55575;SDS011;41437;45.478;9.116;2022-12-20T06:47:29;49.67;;;29.58;;
55575;SDS011;41437;45.478;9.116;2022-12-20T06:50:33;50.63;;;30.98;;
55575;SDS011;41437;45.478;9.116;2022-12-20T06:53:34;51.70;;;30.33;;
55575;SDS011;41437;45.478;9.116;2022-12-20T06:56:36;45.85;;;28.25;;
55575;SDS011;41437;45.478;9.116;2022-12-20T06:59:37;49.75;;;30.02;;
55575;SDS011;41437;45.478;9.116;2022-12-20T07:02:39;50.00;;;29.10;;
55575;SDS011;41437;45.478;9.116;2022-12-20T07:05:42;44.60;;;28.25;;
55575;SDS011;41437;45.478;9.116;2022-12-20T07:08:44;49.87;;;29.10;;
55575;SDS011;41437;45.478;9.116;2022-12-20T07:11:45;48.97;;;29.95;;
55575;SDS011;41437;45.478;9.116;2022-12-20T07:14:47;48.92;;;30.05;;
55575;SDS011;41437;45.478;9.116;2022-12-20T07:17:49;47.15;;;27.95;;
55575;SDS011;41437;45.478;9.116;2022-12-20T07:20:52;45.88;;;28.85;;
55575;SDS011;41437;45.478;9.116;2022-12-20T07:23:54;48.57;;;30.03;;
55575;SDS011;41437;45.478;9.116;2022-12-20T07:26:56;47.95;;;29.65;;
55575;SDS011;41437;45.478;9.116;2022-12-20T07:29:58;46.38;;;27.70;;
55575;SDS011;41437;45.478;9.116;2022-12-20T07:32:59;48.95;;;28.92;;
55575;SDS011;41437;45.478;9.116;2022-12-20T07:36:03;41.67;;;26.20;;
55575;SDS011;41437;45.478;9.116;2022-12-20T07:39:06;46.30;;;27.23;;
55575;SDS011;41437;45.478;9.116;2022-12-20T07:42:08;48.30;;;27.73;;
55575;SDS011;41437;45.478;9.116;2022-12-20T07:45:10;41.92;;;26.33;;
55575;SDS011;41437;45.478;9.116;2022-12-20T07:48:11;50.58;;;27.17;;
55575;SDS011;41437;45.478;9.116;2022-12-20T07:51:15;42.90;;;26.30;;
55575;SDS011;41437;45.478;9.116;2022-12-20T07:54:20;47.25;;;27.02;;
55575;SDS011;41437;45.478;9.116;2022-12-20T07:57:26;58.15;;;26.17;;
55575;SDS011;41437;45.478;9.116;2022-12-20T08:00:32;49.80;;;27.23;;
55575;SDS011;41437;45.478;9.116;2022-12-20T08:03:36;49.20;;;27.60;;
55575;SDS011;41437;45.478;9.116;2022-12-20T08:06:42;57.38;;;28.05;;
55575;SDS011;41437;45.478;9.116;2022-12-20T08:12:47;48.28;;;27.42;;
55575;SDS011;41437;45.478;9.116;2022-12-20T08:15:49;43.63;;;26.85;;
55575;SDS011;41437;45.478;9.116;2022-12-20T08:18:51;47.25;;;27.52;;
55575;SDS011;41437;45.478;9.116;2022-12-20T08:21:54;70.18;;;29.63;;
55575;SDS011;41437;45.478;9.116;2022-12-20T08:24:56;61.15;;;28.75;;
55575;SDS011;41437;45.478;9.116;2022-12-20T08:27:57;49.65;;;28.73;;
55575;SDS011;41437;45.478;9.116;2022-12-20T08:31:01;60.67;;;30.77;;
55575;SDS011;41437;45.478;9.116;2022-12-20T08:34:03;51.38;;;29.08;;
55575;SDS011;41437;45.478;9.116;2022-12-20T08:37:06;48.70;;;29.42;;
55575;SDS011;41437;45.478;9.116;2022-12-20T08:40:08;50.50;;;30.02;;
55575;SDS011;41437;45.478;9.116;2022-12-20T08:43:10;48.78;;;30.20;;
55575;SDS011;41437;45.478;9.116;2022-12-20T08:46:12;47.05;;;28.42;;
55575;SDS011;41437;45.478;9.116;2022-12-20T08:49:14;43.72;;;30.08;;
55575;SDS011;41437;45.478;9.116;2022-12-20T08:52:17;47.17;;;30.60;;
55575;SDS011;41437;45.478;9.116;2022-12-20T08:55:18;43.00;;;29.23;;
55575;SDS011;41437;45.478;9.116;2022-12-20T08:58:20;46.47;;;29.73;;
55575;SDS011;41437;45.478;9.116;2022-12-20T09:01:22;45.88;;;29.45;;
55575;SDS011;41437;45.478;9.116;2022-12-20T09:04:25;56.95;;;30.65;;
55575;SDS011;41437;45.478;9.116;2022-12-20T09:07:28;46.97;;;30.38;;
55575;SDS011;41437;45.478;9.116;2022-12-20T09:10:30;45.17;;;29.08;;
55575;SDS011;41437;45.478;9.116;2022-12-20T09:13:32;46.22;;;29.50;;
55575;SDS011;41437;45.478;9.116;2022-12-20T09:16:34;47.60;;;29.58;;
55575;SDS011;41437;45.478;9.116;2022-12-20T09:19:36;45.03;;;29.00;;
55575;SDS011;41437;45.478;9.116;2022-12-20T09:22:39;41.25;;;27.70;;
55575;SDS011;41437;45.478;9.116;2022-12-20T09:25:42;44.63;;;28.02;;
55575;SDS011;41437;45.478;9.116;2022-12-20T09:28:44;42.42;;;27.75;;
55575;SDS011;41437;45.478;9.116;2022-12-20T09:31:47;47.20;;;28.15;;
55575;SDS011;41437;45.478;9.116;2022-12-20T09:34:49;48.88;;;28.77;;
55575;SDS011;41437;45.478;9.116;2022-12-20T09:37:52;45.53;;;26.65;;
55575;SDS011;41437;45.478;9.116;2022-12-20T09:40:55;44.42;;;26.10;;
55575;SDS011;41437;45.478;9.116;2022-12-20T09:47:03;41.78;;;26.15;;
55575;SDS011;41437;45.478;9.116;2022-12-20T09:50:12;47.42;;;28.08;;
55575;SDS011;41437;45.478;9.116;2022-12-20T09:53:20;44.55;;;27.38;;
55575;SDS011;41437;45.478;9.116;2022-12-20T09:56:32;44.00;;;27.00;;
55575;SDS011;41437;45.478;9.116;2022-12-20T09:59:37;42.58;;;26.73;;
55575;SDS011;41437;45.478;9.116;2022-12-20T10:02:44;40.70;;;27.45;;
55575;SDS011;41437;45.478;9.116;2022-12-20T10:05:48;45.70;;;28.05;;
55575;SDS011;41437;45.478;9.116;2022-12-20T10:08:55;44.55;;;28.05;;
55575;SDS011;41437;45.478;9.116;2022-12-20T10:12:00;43.05;;;28.52;;
55575;SDS011;41437;45.478;9.116;2022-12-20T10:15:13;44.50;;;27.55;;
55575;SDS011;41437;45.478;9.116;2022-12-20T10:18:22;49.75;;;28.33;;
55575;SDS011;41437;45.478;9.116;2022-12-20T10:21:36;43.65;;;27.35;;
55575;SDS011;41437;45.478;9.116;2022-12-20T10:24:47;43.38;;;27.83;;
55575;SDS011;41437;45.478;9.116;2022-12-20T10:27:53;41.08;;;27.67;;
55575;SDS011;41437;45.478;9.116;2022-12-20T10:30:57;45.72;;;29.38;;
55575;SDS011;41437;45.478;9.116;2022-12-20T10:34:01;41.05;;;28.60;;
55575;SDS011;41437;45.478;9.116;2022-12-20T10:37:10;45.33;;;30.17;;
55575;SDS011;41437;45.478;9.116;2022-12-20T10:40:15;41.95;;;26.70;;
55575;SDS011;41437;45.478;9.116;2022-12-20T10:43:27;42.15;;;26.63;;
55575;SDS011;41437;45.478;9.116;2022-12-20T10:46:42;39.90;;;26.50;;
55575;SDS011;41437;45.478;9.116;2022-12-20T10:49:47;39.30;;;26.05;;
55575;SDS011;41437;45.478;9.116;2022-12-20T10:53:01;44.78;;;27.65;;
55575;SDS011;41437;45.478;9.116;2022-12-20T10:56:25;37.65;;;26.40;;
55575;SDS011;41437;45.478;9.116;2022-12-20T10:59:29;41.30;;;27.35;;
55575;SDS011;41437;45.478;9.116;2022-12-20T11:02:35;39.42;;;26.75;;
55575;SDS011;41437;45.478;9.116;2022-12-20T11:05:38;38.22;;;25.00;;
55575;SDS011;41437;45.478;9.116;2022-12-20T11:08:40;36.67;;;24.17;;
55575;SDS011;41437;45.478;9.116;2022-12-20T11:11:51;35.50;;;23.95;;
55575;SDS011;41437;45.478;9.116;2022-12-20T11:15:08;34.40;;;23.45;;
55575;SDS011;41437;45.478;9.116;2022-12-20T11:18:12;41.17;;;24.83;;
55575;SDS011;41437;45.478;9.116;2022-12-20T11:21:21;36.03;;;24.55;;
55575;SDS011;41437;45.478;9.116;2022-12-20T11:24:32;35.80;;;22.75;;
55575;SDS011;41437;45.478;9.116;2022-12-20T11:27:46;35.53;;;24.20;;
55575;SDS011;41437;45.478;9.116;2022-12-20T11:30:59;40.00;;;25.50;;
55575;SDS011;41437;45.478;9.116;2022-12-20T11:34:11;37.63;;;24.95;;
55575;SDS011;41437;45.478;9.116;2022-12-20T11:37:23;44.63;;;27.83;;
55575;SDS011;41437;45.478;9.116;2022-12-20T11:40:29;40.45;;;26.77;;
55575;SDS011;41437;45.478;9.116;2022-12-20T11:43:42;38.47;;;25.58;;
55575;SDS011;41437;45.478;9.116;2022-12-20T11:47:10;38.97;;;25.00;;
55575;SDS011;41437;45.478;9.116;2022-12-20T11:50:33;41.78;;;26.65;;
55575;SDS011;41437;45.478;9.116;2022-12-20T11:56:46;39.83;;;25.00;;
55575;SDS011;41437;45.478;9.116;2022-12-20T11:59:52;39.97;;;25.75;;
55575;SDS011;41437;45.478;9.116;2022-12-20T12:02:58;37.75;;;25.85;;
55575;SDS011;41437;45.478;9.116;2022-12-20T12:06:10;39.67;;;26.80;;
55575;SDS011;41437;45.478;9.116;2022-12-20T12:09:21;37.72;;;26.05;;
55575;SDS011;41437;45.478;9.116;2022-12-20T12:12:25;40.50;;;27.23;;
55575;SDS011;41437;45.478;9.116;2022-12-20T12:15:33;41.47;;;27.13;;
55575;SDS011;41437;45.478;9.116;2022-12-20T12:18:40;45.03;;;29.02;;
55575;SDS011;41437;45.478;9.116;2022-12-20T12:21:43;40.10;;;28.30;;
55575;SDS011;41437;45.478;9.116;2022-12-20T12:24:48;42.50;;;28.77;;
55575;SDS011;41437;45.478;9.116;2022-12-20T12:27:55;40.45;;;28.15;;
55575;SDS011;41437;45.478;9.116;2022-12-20T12:30:58;39.60;;;28.17;;
55575;SDS011;41437;45.478;9.116;2022-12-20T12:34:07;40.33;;;28.02;;
55575;SDS011;41437;45.478;9.116;2022-12-20T12:37:23;36.47;;;26.58;;
55575;SDS011;41437;45.478;9.116;2022-12-20T12:40:51;41.50;;;27.05;;
55575;SDS011;41437;45.478;9.116;2022-12-20T12:44:31;41.17;;;27.70;;
55575;SDS011;41437;45.478;9.116;2022-12-20T12:47:42;37.45;;;26.77;;
55575;SDS011;41437;45.478;9.116;2022-12-20T12:50:50;37.58;;;26.63;;
55575;SDS011;41437;45.478;9.116;2022-12-20T12:54:00;38.20;;;27.15;;
55575;SDS011;41437;45.478;9.116;2022-12-20T12:57:05;41.67;;;27.88;;
55575;SDS011;41437;45.478;9.116;2022-12-20T13:00:21;42.60;;;28.38;;
55575;SDS011;41437;45.478;9.116;2022-12-20T13:04:19;41.72;;;28.90;;
55575;SDS011;41437;45.478;9.116;2022-12-20T13:07:24;62.92;;;30.27;;
55575;SDS011;41437;45.478;9.116;2022-12-20T13:17:58;46.10;;;31.17;;
55575;SDS011;41437;45.478;9.116;2022-12-20T13:24:47;40.33;;;28.50;;
55575;SDS011;41437;45.478;9.116;2022-12-20T13:28:07;44.67;;;29.40;;
55575;SDS011;41437;45.478;9.116;2022-12-20T13:31:44;41.83;;;29.13;;
55575;SDS011;41437;45.478;9.116;2022-12-20T13:34:52;46.05;;;29.10;;
55575;SDS011;41437;45.478;9.116;2022-12-20T13:37:57;50.72;;;31.40;;
55575;SDS011;41437;45.478;9.116;2022-12-20T13:41:01;44.47;;;29.30;;
55575;SDS011;41437;45.478;9.116;2022-12-20T13:44:27;44.70;;;29.30;;
55575;SDS011;41437;45.478;9.116;2022-12-20T13:47:36;48.65;;;29.83;;
55575;SDS011;41437;45.478;9.116;2022-12-20T13:50:44;44.85;;;30.67;;
55575;SDS011;41437;45.478;9.116;2022-12-20T13:53:54;46.10;;;28.50;;
55575;SDS011;41437;45.478;9.116;2022-12-20T13:56:58;42.85;;;28.58;;
55575;SDS011;41437;45.478;9.116;2022-12-20T14:00:01;40.58;;;28.30;;
55575;SDS011;41437;45.478;9.116;2022-12-20T14:03:18;42.03;;;27.48;;
55575;SDS011;41437;45.478;9.116;2022-12-20T14:06:22;40.22;;;27.67;;
55575;SDS011;41437;45.478;9.116;2022-12-20T14:09:27;43.95;;;27.83;;
55575;SDS011;41437;45.478;9.116;2022-12-20T14:12:32;43.38;;;28.77;;
55575;SDS011;41437;45.478;9.116;2022-12-20T14:15:34;40.45;;;27.13;;
55575;SDS011;41437;45.478;9.116;2022-12-20T14:18:36;37.45;;;26.92;;
55575;SDS011;41437;45.478;9.116;2022-12-20T14:21:40;39.75;;;26.90;;
55575;SDS011;41437;45.478;9.116;2022-12-20T14:24:45;41.22;;;26.75;;
55575;SDS011;41437;45.478;9.116;2022-12-20T14:27:47;40.73;;;26.60;;
55575;SDS011;41437;45.478;9.116;2022-12-20T14:30:49;41.30;;;26.45;;
55575;SDS011;41437;45.478;9.116;2022-12-20T14:33:50;44.88;;;25.92;;
55575;SDS011;41437;45.478;9.116;2022-12-20T14:37:23;50.05;;;26.77;;
55575;SDS011;41437;45.478;9.116;2022-12-20T14:40:36;64.25;;;29.02;;
55575;SDS011;41437;45.478;9.116;2022-12-20T14:43:41;36.58;;;25.95;;
55575;SDS011;41437;45.478;9.116;2022-12-20T14:46:47;49.90;;;26.88;;
55575;SDS011;41437;45.478;9.116;2022-12-20T14:49:50;38.25;;;25.85;;
55575;SDS011;41437;45.478;9.116;2022-12-20T14:52:56;48.85;;;26.25;;
55575;SDS011;41437;45.478;9.116;2022-12-20T14:55:59;46.65;;;26.83;;
55575;SDS011;41437;45.478;9.116;2022-12-20T14:59:05;40.00;;;26.00;;
55575;SDS011;41437;45.478;9.116;2022-12-20T15:05:47;40.70;;;26.02;;
55575;SDS011;41437;45.478;9.116;2022-12-20T15:08:49;46.38;;;27.25;;
55575;SDS011;41437;45.478;9.116;2022-12-20T15:11:52;46.95;;;28.95;;
55575;SDS011;41437;45.478;9.116;2022-12-20T15:14:55;43.88;;;28.63;;
55575;SDS011;41437;45.478;9.116;2022-12-20T15:17:57;42.90;;;28.95;;
55575;SDS011;41437;45.478;9.116;2022-12-20T15:21:02;45.05;;;28.02;;
55575;SDS011;41437;45.478;9.116;2022-12-20T15:24:11;45.67;;;29.40;;
55575;SDS011;41437;45.478;9.116;2022-12-20T15:27:17;45.15;;;29.27;;
55575;SDS011;41437;45.478;9.116;2022-12-20T15:30:18;44.47;;;29.58;;
55575;SDS011;41437;45.478;9.116;2022-12-20T15:33:21;44.20;;;30.35;;
55575;SDS011;41437;45.478;9.116;2022-12-20T15:36:25;45.25;;;28.83;;
55575;SDS011;41437;45.478;9.116;2022-12-20T15:39:28;46.65;;;29.35;;
55575;SDS011;41437;45.478;9.116;2022-12-20T15:42:31;43.72;;;28.70;;
55575;SDS011;41437;45.478;9.116;2022-12-20T15:45:33;43.55;;;29.63;;
55575;SDS011;41437;45.478;9.116;2022-12-20T15:48:35;43.50;;;29.38;;
55575;SDS011;41437;45.478;9.116;2022-12-20T15:51:36;44.70;;;29.73;;
55575;SDS011;41437;45.478;9.116;2022-12-20T15:54:39;39.78;;;28.38;;
55575;SDS011;41437;45.478;9.116;2022-12-20T15:57:42;44.20;;;29.50;;
55575;SDS011;41437;45.478;9.116;2022-12-20T16:00:44;46.97;;;29.30;;
55575;SDS011;41437;45.478;9.116;2022-12-20T16:03:46;44.08;;;29.55;;
55575;SDS011;41437;45.478;9.116;2022-12-20T16:06:49;46.58;;;29.95;;
55575;SDS011;41437;45.478;9.116;2022-12-20T16:12:55;48.45;;;29.70;;
55575;SDS011;41437;45.478;9.116;2022-12-20T16:15:57;47.15;;;30.15;;
55575;SDS011;41437;45.478;9.116;2022-12-20T16:18:59;50.05;;;29.65;;
55575;SDS011;41437;45.478;9.116;2022-12-20T16:22:02;50.30;;;28.40;;
55575;SDS011;41437;45.478;9.116;2022-12-20T16:25:05;49.15;;;30.17;;
55575;SDS011;41437;45.478;9.116;2022-12-20T16:28:08;41.90;;;28.63;;
55575;SDS011;41437;45.478;9.116;2022-12-20T16:31:11;47.17;;;30.00;;
55575;SDS011;41437;45.478;9.116;2022-12-20T16:34:21;46.17;;;27.63;;
55575;SDS011;41437;45.478;9.116;2022-12-20T16:37:23;51.97;;;31.80;;
55575;SDS011;41437;45.478;9.116;2022-12-20T16:40:25;49.58;;;30.17;;
55575;SDS011;41437;45.478;9.116;2022-12-20T16:43:30;48.00;;;29.33;;
55575;SDS011;41437;45.478;9.116;2022-12-20T16:46:31;49.88;;;31.23;;
55575;SDS011;41437;45.478;9.116;2022-12-20T16:49:33;56.20;;;32.80;;
55575;SDS011;41437;45.478;9.116;2022-12-20T16:52:35;49.83;;;30.83;;
55575;SDS011;41437;45.478;9.116;2022-12-20T16:55:37;52.08;;;31.30;;
55575;SDS011;41437;45.478;9.116;2022-12-20T16:58:40;47.55;;;30.10;;
55575;SDS011;41437;45.478;9.116;2022-12-20T17:01:43;46.10;;;29.85;;
55575;SDS011;41437;45.478;9.116;2022-12-20T17:04:46;48.08;;;29.75;;
55575;SDS011;41437;45.478;9.116;2022-12-20T17:07:48;49.95;;;31.65;;
55575;SDS011;41437;45.478;9.116;2022-12-20T17:10:49;49.08;;;30.50;;
55575;SDS011;41437;45.478;9.116;2022-12-20T17:13:53;47.47;;;30.25;;
55575;SDS011;41437;45.478;9.116;2022-12-20T17:16:56;45.53;;;30.73;;
55575;SDS011;41437;45.478;9.116;2022-12-20T17:19:58;52.55;;;31.80;;
55575;SDS011;41437;45.478;9.116;2022-12-20T17:22:59;45.38;;;30.73;;
55575;SDS011;41437;45.478;9.116;2022-12-20T17:26:01;45.10;;;29.35;;
55575;SDS011;41437;45.478;9.116;2022-12-20T17:29:05;49.08;;;30.52;;
55575;SDS011;41437;45.478;9.116;2022-12-20T17:32:11;45.70;;;30.23;;
55575;SDS011;41437;45.478;9.116;2022-12-20T17:35:21;49.70;;;29.92;;
55575;SDS011;41437;45.478;9.116;2022-12-20T17:38:25;44.50;;;29.38;;
55575;SDS011;41437;45.478;9.116;2022-12-20T17:41:29;48.38;;;30.23;;
55575;SDS011;41437;45.478;9.116;2022-12-20T17:47:35;44.08;;;28.60;;
55575;SDS011;41437;45.478;9.116;2022-12-20T17:50:37;43.10;;;28.67;;
55575;SDS011;41437;45.478;9.116;2022-12-20T17:53:39;44.20;;;28.77;;
55575;SDS011;41437;45.478;9.116;2022-12-20T17:56:40;43.60;;;30.05;;
55575;SDS011;41437;45.478;9.116;2022-12-20T17:59:43;46.75;;;30.83;;
55575;SDS011;41437;45.478;9.116;2022-12-20T18:02:45;45.35;;;29.63;;
55575;SDS011;41437;45.478;9.116;2022-12-20T18:05:47;50.33;;;30.90;;
55575;SDS011;41437;45.478;9.116;2022-12-20T18:08:49;45.90;;;30.05;;
55575;SDS011;41437;45.478;9.116;2022-12-20T18:11:51;44.58;;;29.85;;
55575;SDS011;41437;45.478;9.116;2022-12-20T18:14:54;48.08;;;30.60;;
55575;SDS011;41437;45.478;9.116;2022-12-20T18:17:56;44.47;;;28.70;;
55575;SDS011;41437;45.478;9.116;2022-12-20T18:21:01;44.42;;;30.13;;
55575;SDS011;41437;45.478;9.116;2022-12-20T18:24:04;46.20;;;30.85;;
55575;SDS011;41437;45.478;9.116;2022-12-20T18:27:06;48.63;;;30.38;;
55575;SDS011;41437;45.478;9.116;2022-12-20T18:30:09;45.30;;;29.63;;
55575;SDS011;41437;45.478;9.116;2022-12-20T18:33:12;48.00;;;29.95;;
55575;SDS011;41437;45.478;9.116;2022-12-20T18:36:17;44.92;;;29.42;;